Coonrod, New York
Current Conditions -  °F | °C
As of 9:53 PM on Tuesday 25 Nov 2014 (Local Time) from KRME Reporting Station
Overcast Overcast  
Wind Chill: 29°   Ceiling: 2200
Heat Index: 38°   Visibility: 10mi
Dew Point: 31°   Wind: 17mph
Humidity: 76%   Direction: 280°W
Pressure: 30.17"   Gusts: NA
Location:  43.2466°N, 75.4624°W
Report Text: KRME 260253Z AUTO 28015KT 10SM OVC022 03/M01 A3017 RMK AO2 SLP218 T00331006 51036
Loading
Personal Weather Stations






























Interactive Weather Map New forecast layout! Learn more

10-Day Weather Forecast

Advertisements
Track Severe Weather on mobile